createdAt,value
2018-10-20T12:48:51.452Z,10.70
2018-10-20T12:49:51.262Z,13.10
2018-10-20T12:51:46.573Z,10.20
2018-10-20T12:52:46.567Z,11.10
2018-10-20T12:54:41.833Z,11.20
2018-10-20T12:55:41.689Z,11.70
2018-10-20T12:57:36.936Z,10.90
2018-10-20T12:58:36.875Z,10.90
2018-10-20T13:00:32.138Z,10.50
2018-10-20T13:01:32.063Z,11.90
2018-10-20T13:03:27.339Z,12.30
2018-10-20T13:04:27.633Z,11.20
2018-10-20T13:06:22.550Z,11.90
2018-10-20T13:07:22.448Z,11.30
2018-10-20T13:09:17.728Z,10.90
2018-10-20T13:10:17.654Z,9.80
2018-10-20T13:12:12.927Z,9.90
2018-10-20T13:13:12.836Z,9.10
2018-10-20T13:15:08.113Z,9.60
2018-10-20T13:16:08.036Z,10.20
2018-10-20T13:18:03.412Z,11.00
2018-10-20T13:19:03.261Z,11.40
2018-10-20T13:20:58.557Z,11.10
2018-10-20T13:21:58.465Z,11.20
2018-10-20T13:23:53.788Z,10.50
2018-10-20T13:24:53.648Z,10.80
2018-10-20T13:26:48.932Z,10.40
2018-10-20T13:27:48.849Z,9.80
2018-10-20T13:29:44.162Z,10.00
2018-10-20T13:30:44.032Z,9.90
2018-10-20T13:32:39.328Z,10.20
2018-10-20T13:33:39.274Z,9.60
2018-10-20T13:35:35.338Z,9.70
2018-10-20T13:36:35.264Z,9.40
2018-10-20T13:38:31.368Z,8.80
2018-10-20T13:39:31.277Z,9.40
2018-10-20T13:41:26.570Z,9.10
2018-10-20T13:42:26.509Z,9.10
2018-10-20T13:44:22.621Z,9.00
2018-10-20T13:45:22.521Z,10.90
2018-10-20T13:47:18.622Z,9.00
2018-10-20T13:48:18.563Z,9.10
2018-10-20T13:50:13.816Z,8.30
2018-10-20T13:51:13.755Z,8.50
2018-10-20T13:53:09.029Z,8.50
2018-10-20T13:54:09.029Z,9.30
2018-10-20T13:56:04.245Z,9.70
2018-10-20T13:57:04.152Z,9.80
2018-10-20T13:58:59.467Z,8.90
2018-10-20T13:59:59.353Z,9.30
2018-10-20T14:01:54.635Z,8.60
2018-10-20T14:02:54.553Z,9.90
2018-10-20T14:04:49.843Z,10.30
2018-10-20T14:05:49.756Z,10.00
2018-10-20T14:07:45.052Z,8.60
2018-10-20T14:08:44.972Z,9.30
2018-10-20T14:10:41.118Z,10.20
2018-10-20T14:11:41.025Z,8.50
2018-10-20T14:13:36.292Z,7.50
2018-10-20T14:14:36.212Z,8.10
2018-10-20T14:16:31.496Z,9.10
2018-10-20T14:17:31.440Z,8.00
2018-10-20T14:19:26.732Z,8.20
2018-10-20T14:20:26.652Z,8.00
2018-10-20T14:22:21.934Z,8.90
2018-10-20T14:23:21.859Z,8.60
2018-10-20T14:25:17.185Z,7.90
2018-10-20T14:26:17.163Z,7.90
2018-10-20T14:28:12.461Z,7.70
2018-10-20T14:29:12.297Z,7.80
2018-10-20T14:31:07.559Z,8.40
2018-10-20T14:32:07.492Z,8.70
2018-10-20T14:34:02.777Z,8.80
2018-10-20T14:35:02.688Z,8.60
2018-10-20T14:36:57.977Z,8.50
2018-10-20T14:37:57.941Z,8.50
2018-10-20T14:39:53.170Z,8.80
2018-10-20T14:40:53.078Z,8.50
2018-10-20T14:42:48.372Z,10.60
2018-10-20T14:43:48.313Z,8.00
2018-10-20T14:45:43.610Z,8.30
2018-10-20T14:46:43.541Z,8.60
2018-10-20T14:48:38.832Z,8.30
2018-10-20T14:49:38.730Z,8.00
2018-10-20T14:51:34.020Z,8.40
2018-10-20T14:52:33.984Z,7.70
2018-10-20T14:54:30.093Z,7.80
2018-10-20T14:55:30.138Z,7.80
2018-10-20T14:57:25.315Z,8.00
2018-10-20T14:58:25.310Z,8.80
2018-10-20T15:00:21.383Z,8.20
2018-10-20T15:01:21.314Z,8.00
2018-10-20T15:03:16.606Z,9.20
2018-10-20T15:04:16.507Z,8.90
2018-10-20T15:06:11.886Z,8.30
2018-10-20T15:07:11.708Z,8.00
2018-10-20T15:09:07.010Z,8.00
2018-10-20T15:10:06.917Z,7.90
2018-10-20T15:12:02.284Z,8.70
2018-10-20T15:13:02.143Z,8.50
2018-10-20T15:14:57.551Z,9.30
2018-10-20T15:15:57.355Z,8.30
2018-10-20T15:17:52.637Z,9.80
2018-10-20T15:18:52.548Z,9.10
2018-10-20T15:20:47.863Z,8.90
2018-10-20T15:21:47.746Z,9.80
2018-10-20T15:23:43.066Z,8.60
2018-10-20T15:24:42.957Z,9.00
2018-10-20T15:26:38.249Z,9.80
2018-10-20T15:27:38.176Z,8.90
2018-10-20T15:29:33.457Z,9.60
2018-10-20T15:30:33.432Z,9.30
2018-10-20T15:32:28.689Z,9.10
2018-10-20T15:33:28.598Z,8.60
2018-10-20T15:35:23.944Z,8.70
2018-10-20T15:36:23.843Z,8.70
2018-10-20T15:38:19.149Z,9.00
2018-10-20T15:39:19.071Z,8.80
2018-10-20T15:41:14.358Z,9.70
2018-10-20T15:42:14.399Z,8.40
2018-10-20T15:44:09.587Z,8.30
2018-10-20T15:45:09.603Z,8.60
2018-10-20T15:47:06.294Z,8.90
2018-10-20T15:48:06.320Z,9.00
2018-10-20T15:50:01.484Z,9.90
2018-10-20T15:51:01.398Z,8.90
2018-10-20T15:52:56.715Z,8.40
2018-10-20T15:53:56.628Z,9.10
2018-10-20T15:55:51.915Z,8.60
2018-10-20T15:56:51.824Z,8.40
2018-10-20T15:58:47.239Z,8.40
2018-10-20T15:59:47.016Z,8.40
2018-10-20T16:01:43.211Z,8.00
2018-10-20T16:02:43.117Z,8.40
2018-10-20T16:04:39.322Z,8.20
2018-10-20T16:05:39.238Z,8.40
2018-10-20T16:07:34.515Z,8.40
2018-10-20T16:08:34.436Z,9.40
2018-10-20T16:10:29.724Z,8.80
2018-10-20T16:11:29.628Z,8.80
2018-10-20T16:13:24.935Z,9.20
2018-10-20T16:14:24.819Z,10.40
2018-10-20T16:16:20.139Z,9.40
2018-10-20T16:17:20.030Z,8.50
2018-10-20T16:19:16.190Z,8.30
2018-10-20T16:20:16.103Z,8.70
2018-10-20T16:22:12.224Z,8.10
2018-10-20T16:23:12.125Z,8.80
2018-10-20T16:25:07.415Z,8.70
2018-10-20T16:26:07.342Z,8.90
2018-10-20T16:28:02.781Z,8.80
2018-10-20T16:29:02.534Z,8.70
2018-10-20T16:30:58.673Z,9.00
2018-10-20T16:31:58.593Z,8.90
2018-10-20T16:33:53.986Z,8.70
2018-10-20T16:34:53.822Z,8.60
2018-10-20T16:36:49.090Z,8.80
2018-10-20T16:37:49.027Z,8.60
2018-10-20T16:39:45.135Z,8.30
2018-10-20T16:40:45.045Z,8.70
2018-10-20T16:42:41.158Z,8.80
2018-10-20T16:43:41.082Z,9.40
2018-10-20T16:45:37.188Z,9.70
2018-10-20T16:46:37.097Z,10.00
2018-10-20T16:48:33.205Z,8.70
2018-10-20T16:49:33.119Z,9.10
2018-10-20T16:51:28.408Z,9.80
2018-10-20T16:52:28.324Z,9.60
2018-10-20T16:54:24.437Z,9.60
2018-10-20T16:55:24.385Z,11.20
2018-10-20T16:57:19.628Z,9.70
2018-10-20T16:58:19.546Z,10.10
2018-10-20T17:00:15.713Z,10.20
2018-10-20T17:01:15.602Z,10.30
2018-10-20T17:03:10.884Z,9.90
2018-10-20T17:04:10.803Z,10.10
2018-10-20T17:06:06.992Z,9.60
2018-10-20T17:07:06.850Z,10.00
2018-10-20T17:09:02.963Z,10.50
2018-10-20T17:10:02.872Z,10.00
2018-10-20T17:11:57.380Z,9.30
2018-10-20T17:12:57.399Z,9.50
2018-10-20T17:14:52.544Z,10.00
2018-10-20T17:15:52.469Z,9.70
2018-10-20T17:17:48.625Z,10.30
2018-10-20T17:18:48.523Z,9.80
2018-10-20T17:20:43.824Z,9.30
2018-10-20T17:21:43.733Z,9.10
2018-10-20T17:23:39.870Z,9.50
2018-10-20T17:24:39.766Z,9.50
2018-10-20T17:26:35.140Z,12.00
2018-10-20T17:27:34.965Z,10.50
2018-10-20T17:29:29.256Z,9.50
2018-10-20T17:30:29.148Z,9.60
2018-10-20T17:32:24.450Z,9.80
2018-10-20T17:33:24.423Z,10.30
2018-10-20T17:35:19.780Z,11.70
2018-10-20T17:36:19.560Z,11.60
2018-10-20T17:38:14.862Z,11.10
2018-10-20T17:39:14.756Z,10.50
2018-10-20T17:41:10.049Z,11.60
2018-10-20T17:42:09.967Z,12.40
2018-10-20T17:44:05.322Z,13.60
2018-10-20T17:45:05.170Z,11.80
2018-10-20T17:47:00.503Z,11.20
2018-10-20T17:48:00.380Z,11.10
2018-10-20T17:49:54.697Z,10.60
2018-10-20T17:50:54.622Z,10.70
2018-10-20T17:52:49.884Z,11.00
2018-10-20T17:53:49.814Z,11.00
2018-10-20T17:55:45.150Z,12.00
2018-10-20T17:56:45.006Z,13.00
2018-10-20T17:58:42.669Z,11.50
2018-10-20T17:59:42.784Z,11.50
2018-10-20T18:01:37.784Z,12.00
2018-10-20T18:02:37.702Z,11.90
2018-10-20T18:04:33.003Z,11.40
2018-10-20T18:05:32.989Z,11.70
2018-10-20T18:07:29.060Z,11.60
2018-10-20T18:08:28.974Z,10.90
2018-10-20T18:10:24.328Z,12.30
2018-10-20T18:11:24.170Z,12.30
2018-10-20T18:13:19.455Z,12.90
2018-10-20T18:14:19.336Z,11.80
2018-10-20T18:16:14.773Z,12.30
2018-10-20T18:17:14.535Z,12.50
2018-10-20T18:19:09.814Z,13.00
2018-10-20T18:20:09.734Z,12.80
2018-10-20T18:22:05.887Z,12.50
2018-10-20T18:23:05.792Z,12.30
2018-10-20T18:25:01.068Z,12.40
2018-10-20T18:26:00.991Z,12.70
2018-10-20T18:27:56.264Z,12.90
2018-10-20T18:28:56.268Z,12.60
2018-10-20T18:30:51.437Z,12.20
2018-10-20T18:31:51.350Z,12.80
2018-10-20T18:33:46.626Z,12.90
2018-10-20T18:34:46.594Z,12.90
2018-10-20T18:36:41.790Z,13.40
2018-10-20T18:37:41.706Z,12.60
2018-10-20T18:39:37.087Z,13.30
2018-10-20T18:40:36.945Z,13.10
2018-10-20T18:42:33.006Z,13.80
2018-10-20T18:43:32.945Z,14.80
2018-10-20T18:45:29.368Z,13.60
2018-10-20T18:46:29.060Z,14.30
2018-10-20T18:48:24.322Z,14.80
2018-10-20T18:49:24.277Z,14.40
2018-10-20T18:51:19.563Z,13.40
2018-10-20T18:52:19.426Z,13.60
2018-10-20T18:54:14.694Z,13.80
2018-10-20T18:55:14.631Z,13.50
2018-10-20T18:57:10.647Z,13.60
2018-10-20T18:58:09.809Z,13.90
2018-10-20T19:00:05.094Z,15.30
2018-10-20T19:01:04.999Z,14.50
2018-10-20T19:03:01.190Z,15.10
2018-10-20T19:04:01.072Z,15.10
2018-10-20T19:05:56.345Z,14.70
2018-10-20T19:06:56.266Z,14.50
2018-10-20T19:08:51.544Z,14.70
2018-10-20T19:09:51.460Z,15.90
2018-10-20T19:11:46.748Z,14.60
2018-10-20T19:12:46.654Z,15.50
2018-10-20T19:14:41.957Z,16.60
2018-10-20T19:15:41.844Z,17.50
2018-10-20T19:17:37.124Z,16.20
2018-10-20T19:18:37.035Z,17.10
2018-10-20T19:20:32.313Z,16.80
2018-10-20T19:21:32.224Z,16.20
2018-10-20T19:23:27.486Z,16.30
2018-10-20T19:24:27.422Z,16.60
2018-10-20T19:26:23.598Z,16.40
2018-10-20T19:27:23.492Z,16.10
2018-10-20T19:29:18.706Z,15.30
2018-10-20T19:30:18.617Z,16.20
2018-10-20T19:32:13.904Z,15.60
2018-10-20T19:33:13.852Z,16.30
2018-10-20T19:35:09.123Z,17.40
2018-10-20T19:36:09.008Z,17.50
2018-10-20T19:38:04.314Z,17.40
2018-10-20T19:39:04.266Z,17.20
2018-10-20T19:40:59.520Z,16.80
2018-10-20T19:41:59.404Z,16.90
2018-10-20T19:43:54.697Z,17.20
2018-10-20T19:44:54.661Z,16.50
2018-10-20T19:46:51.392Z,17.00
2018-10-20T19:47:51.297Z,15.20
2018-10-20T19:49:46.576Z,16.20
2018-10-20T19:50:46.501Z,15.40
2018-10-20T19:52:41.796Z,15.40
2018-10-20T19:53:41.684Z,15.00
2018-10-20T19:55:37.022Z,15.90
2018-10-20T19:56:36.887Z,15.30
2018-10-20T19:58:32.162Z,15.70
2018-10-20T19:59:32.073Z,16.40
2018-10-20T20:01:27.354Z,15.40
2018-10-20T20:02:27.265Z,16.20
2018-10-20T20:04:22.565Z,14.40
2018-10-20T20:05:22.452Z,15.80
2018-10-20T20:07:17.748Z,14.90
2018-10-20T20:08:17.659Z,14.70
2018-10-20T20:10:13.821Z,14.50
2018-10-20T20:11:13.737Z,14.10
2018-10-20T20:13:08.053Z,13.50
2018-10-20T20:14:07.961Z,13.70
2018-10-20T20:16:04.136Z,14.20
2018-10-20T20:17:03.976Z,14.40
2018-10-20T20:18:59.282Z,14.90
2018-10-20T20:19:59.188Z,15.60
2018-10-20T20:21:54.453Z,14.50
2018-10-20T20:22:54.368Z,15.40
2018-10-20T20:24:49.646Z,15.50
2018-10-20T20:25:49.548Z,15.70
2018-10-20T20:27:44.823Z,17.00
2018-10-20T20:28:44.749Z,17.50
2018-10-20T20:30:40.026Z,18.90
2018-10-20T20:31:39.942Z,18.60
2018-10-20T20:33:38.809Z,16.90
2018-10-20T20:34:38.768Z,17.70
2018-10-20T20:35:38.628Z,16.80
2018-10-20T20:36:38.586Z,16.00
2018-10-20T20:37:38.513Z,16.20
2018-10-20T20:38:38.453Z,15.80
2018-10-20T20:39:38.383Z,15.90
2018-10-20T20:40:38.322Z,15.00
2018-10-20T20:41:38.249Z,14.00
2018-10-20T20:42:38.192Z,14.10
2018-10-20T20:43:38.121Z,14.30
2018-10-20T20:44:38.057Z,13.70
2018-10-20T20:45:37.985Z,14.10
2018-10-20T20:46:37.918Z,13.70
2018-10-20T20:47:37.871Z,13.80
2018-10-20T20:48:37.786Z,14.80
2018-10-20T20:49:37.733Z,15.00
2018-10-20T20:50:37.728Z,15.00
2018-10-20T20:51:37.614Z,14.20
2018-10-20T20:52:37.550Z,15.10
2018-10-20T20:53:37.463Z,14.10
2018-10-20T20:54:37.395Z,15.60
2018-10-20T20:55:37.332Z,14.20
2018-10-20T20:56:37.267Z,14.00
2018-10-20T20:57:37.211Z,14.00
2018-10-20T20:58:37.145Z,13.80
2018-10-20T20:59:37.063Z,13.80
2018-10-20T21:00:37.011Z,14.10
2018-10-20T21:01:36.944Z,14.90
2018-10-20T21:02:36.880Z,13.70
2018-10-20T21:03:36.815Z,14.80
2018-10-20T21:04:36.755Z,14.20
2018-10-20T21:05:36.679Z,14.90
2018-10-20T21:06:36.610Z,14.40
2018-10-20T21:07:36.591Z,15.10
2018-10-20T21:08:36.478Z,15.60
2018-10-20T21:09:36.696Z,14.50
2018-10-20T21:10:36.468Z,14.90
2018-10-20T21:11:36.288Z,14.60
2018-10-20T21:12:36.251Z,14.70
2018-10-20T21:13:36.183Z,15.00
2018-10-20T21:14:36.087Z,15.80
2018-10-20T21:15:36.055Z,15.30
2018-10-20T21:16:35.969Z,14.50
2018-10-20T21:17:35.884Z,14.50
2018-10-20T21:18:35.826Z,15.10
2018-10-20T21:19:35.756Z,14.80
2018-10-20T21:20:35.692Z,15.70
2018-10-20T21:21:35.636Z,16.60
2018-10-20T21:22:35.578Z,15.20
2018-10-20T21:23:35.507Z,15.50
2018-10-20T21:24:35.439Z,15.30
2018-10-20T21:25:35.368Z,15.40
2018-10-20T21:26:35.296Z,15.50
2018-10-20T21:27:35.240Z,16.00
2018-10-20T21:28:35.218Z,16.00
2018-10-20T21:29:35.107Z,15.80
2018-10-20T21:30:35.051Z,16.70
2018-10-20T21:31:34.967Z,15.50
2018-10-20T21:32:34.992Z,15.30
2018-10-20T21:33:34.849Z,16.00
2018-10-20T21:34:34.782Z,15.20
2018-10-20T21:35:34.719Z,15.30
2018-10-20T21:36:34.651Z,14.90
2018-10-20T21:37:34.572Z,15.30
2018-10-20T21:38:34.505Z,15.40
2018-10-20T21:39:34.457Z,14.90
2018-10-20T21:40:34.394Z,14.90
2018-10-20T21:41:34.329Z,16.90
2018-10-20T21:42:34.261Z,15.70
2018-10-20T21:43:34.189Z,14.90
2018-10-20T21:44:34.115Z,15.40
2018-10-20T21:45:34.111Z,17.00
2018-10-20T21:46:33.992Z,15.30
2018-10-20T21:47:33.913Z,15.00
2018-10-20T21:48:33.867Z,15.10
2018-10-20T21:49:33.797Z,15.10
2018-10-20T21:50:33.926Z,14.20
2018-10-20T21:51:33.663Z,14.20
2018-10-20T21:52:33.593Z,14.70
2018-10-20T21:53:33.526Z,15.80
2018-10-20T21:54:33.477Z,15.60
2018-10-20T21:55:33.406Z,15.30
2018-10-20T21:56:33.639Z,14.50
2018-10-20T21:57:33.267Z,14.30
2018-10-20T21:58:33.202Z,14.90
2018-10-20T21:59:33.137Z,14.60
2018-10-20T22:00:33.073Z,14.10
2018-10-20T22:01:33.014Z,13.90
2018-10-20T22:02:32.994Z,15.20
2018-10-20T22:03:32.875Z,14.50
2018-10-20T22:04:32.806Z,13.70
2018-10-20T22:05:32.743Z,14.60
2018-10-20T22:06:32.684Z,15.00
2018-10-20T22:07:32.595Z,14.40
2018-10-20T22:08:32.553Z,14.80
2018-10-20T22:09:32.484Z,14.40
2018-10-20T22:10:32.409Z,15.40
2018-10-20T22:11:32.347Z,14.40
2018-10-20T22:12:32.276Z,15.10
2018-10-20T22:13:32.223Z,14.60
2018-10-20T22:14:32.140Z,15.00
2018-10-20T22:15:32.095Z,14.30
2018-10-20T22:16:32.013Z,15.00
2018-10-20T22:17:31.947Z,15.30
2018-10-20T22:18:31.887Z,14.70
2018-10-20T22:19:31.810Z,14.60
2018-10-20T22:20:31.740Z,15.40
2018-10-20T22:21:31.688Z,14.60
2018-10-20T22:22:31.655Z,14.90
2018-10-20T22:23:31.569Z,15.40
2018-10-20T22:24:31.488Z,16.00
2018-10-20T22:25:31.416Z,14.90
2018-10-20T22:26:31.350Z,14.80
2018-10-20T22:27:31.300Z,14.90
2018-10-20T22:28:31.213Z,14.80
2018-10-20T22:29:31.163Z,15.20
2018-10-20T22:30:31.240Z,15.70
2018-10-20T22:31:31.030Z,15.00
2018-10-20T22:32:30.959Z,14.50
2018-10-20T22:33:30.880Z,15.50
2018-10-20T22:34:30.814Z,15.30
2018-10-20T22:35:30.759Z,15.40
2018-10-20T22:36:30.700Z,14.20
2018-10-20T22:37:30.622Z,15.60
2018-10-20T22:38:30.686Z,15.30
2018-10-20T22:39:30.493Z,16.00
2018-10-20T22:40:30.426Z,15.00
2018-10-20T22:41:30.366Z,15.00
2018-10-20T22:42:30.298Z,14.60
2018-10-20T22:43:30.222Z,15.30
2018-10-20T22:44:30.172Z,14.80
2018-10-20T22:45:30.106Z,15.20
2018-10-20T22:46:30.038Z,15.00
2018-10-20T22:47:29.981Z,15.20
2018-10-20T22:48:29.903Z,14.50
2018-10-20T22:49:29.849Z,14.80
2018-10-20T22:50:29.757Z,16.10
2018-10-20T22:51:29.702Z,16.30
2018-10-20T22:52:29.634Z,15.60
2018-10-20T22:53:29.560Z,16.10
2018-10-20T22:54:29.497Z,15.90
2018-10-20T22:55:29.433Z,15.80
2018-10-20T22:56:29.381Z,15.30
2018-10-20T22:57:29.305Z,15.40
2018-10-20T22:58:29.238Z,16.00
2018-10-20T22:59:29.176Z,16.10
2018-10-20T23:00:29.108Z,16.40
2018-10-20T23:01:29.060Z,16.00
2018-10-20T23:02:28.996Z,16.60
2018-10-20T23:03:28.927Z,15.80
2018-10-20T23:04:28.837Z,16.70
2018-10-20T23:05:28.780Z,16.00
2018-10-20T23:06:28.712Z,17.30
2018-10-20T23:07:28.654Z,16.00
2018-10-20T23:08:28.567Z,16.00
2018-10-20T23:09:28.516Z,16.60
2018-10-20T23:10:28.452Z,15.80
2018-10-20T23:11:28.380Z,16.60
2018-10-20T23:12:28.317Z,16.20
2018-10-20T23:13:28.257Z,16.70
2018-10-20T23:14:28.176Z,15.30
2018-10-20T23:15:28.123Z,16.40
2018-10-20T23:16:28.053Z,15.60
2018-10-20T23:17:28.048Z,16.50
2018-10-20T23:18:27.911Z,16.40
2018-10-20T23:19:27.839Z,16.80
2018-10-20T23:20:27.775Z,16.30
2018-10-20T23:21:27.724Z,16.50
2018-10-20T23:22:27.661Z,16.20
2018-10-20T23:23:27.583Z,16.70
2018-10-20T23:24:27.519Z,16.20
2018-10-20T23:25:27.460Z,17.30
2018-10-20T23:26:27.393Z,16.40
2018-10-20T23:27:27.323Z,16.20
2018-10-20T23:28:27.260Z,16.30
2018-10-20T23:29:27.185Z,16.40
2018-10-20T23:30:27.111Z,16.50
2018-10-20T23:31:27.085Z,17.20
2018-10-20T23:32:26.979Z,16.30
2018-10-20T23:33:26.930Z,16.80
2018-10-20T23:34:26.858Z,16.60
2018-10-20T23:35:26.802Z,16.40
2018-10-20T23:36:26.749Z,15.50
2018-10-20T23:37:26.660Z,16.00
2018-10-20T23:38:26.594Z,15.50
2018-10-20T23:39:26.526Z,17.20
2018-10-20T23:40:26.465Z,16.10
2018-10-20T23:41:26.385Z,16.30
2018-10-20T23:42:26.319Z,16.40
2018-10-20T23:43:26.253Z,16.50
2018-10-20T23:44:26.191Z,16.60
2018-10-20T23:45:26.136Z,16.30
2018-10-20T23:46:26.064Z,16.00
2018-10-20T23:47:26.000Z,16.80
2018-10-20T23:48:25.926Z,16.40
2018-10-20T23:49:25.867Z,16.80
2018-10-20T23:50:25.804Z,16.60
2018-10-20T23:51:25.730Z,15.70
2018-10-20T23:52:25.668Z,16.60
2018-10-20T23:53:25.590Z,16.00
2018-10-20T23:54:25.611Z,15.90
2018-10-20T23:55:25.469Z,16.50
2018-10-20T23:56:25.403Z,16.90
2018-10-20T23:57:25.326Z,15.90
2018-10-20T23:58:25.253Z,17.00
2018-10-20T23:59:25.193Z,16.10
